Time;durP1;ratioP1;P1;durP2;ratioP2;P2;SDS_P1;SDS_P2;PMS_P1;PMS_P2;Temp;Humidity;BMP_temperature;BMP_pressure;BME280_temperature;BME280_humidity;BME280_pressure;Samples;Min_cycle;Max_cycle;Signal;HPM_P1;HPM_P2
2021/04/30 00:00:10;;;;;;;9.20;5.80;;;;;;;14.31;52.23;100235.01;1772291;79;21171;-68
2021/04/30 00:02:41;;;;;;;7.60;5.10;;;;;;;14.31;52.29;100230.22;1764771;79;21167;-73
2021/04/30 00:05:11;;;;;;;9.15;5.60;;;;;;;14.30;52.29;100228.03;1788959;79;21120;-66
2021/04/30 00:07:40;;;;;;;8.73;6.05;;;;;;;14.29;52.39;100225.57;1789570;78;21550;-66
2021/04/30 00:10:08;;;;;;;8.73;5.78;;;;;;;14.28;52.47;100227.86;1783335;79;21196;-66
2021/04/30 00:12:38;;;;;;;7.78;4.37;;;;;;;14.25;52.49;100228.16;1780004;79;21175;-70
2021/04/30 00:15:06;;;;;;;10.03;6.25;;;;;;;14.25;52.57;100230.30;1781533;79;21219;-66
2021/04/30 00:17:35;;;;;;;8.43;5.03;;;;;;;14.25;52.69;100230.80;1780672;79;21206;-65
2021/04/30 00:20:04;;;;;;;9.75;5.87;;;;;;;14.23;52.67;100221.69;1785685;79;21535;-70
2021/04/30 00:22:33;;;;;;;8.63;5.85;;;;;;;14.23;52.80;100229.63;1782689;79;21183;-70
2021/04/30 00:25:00;;;;;;;8.58;5.62;;;;;;;14.23;52.75;100223.02;1781660;79;21202;-66
2021/04/30 00:27:28;;;;;;;9.43;5.58;;;;;;;14.24;52.73;100222.05;1767198;79;21650;-67
2021/04/30 00:29:56;;;;;;;9.70;6.28;;;;;;;14.27;52.75;100224.86;1787446;79;21155;-66
2021/04/30 00:32:24;;;;;;;10.03;5.92;;;;;;;14.29;52.75;100221.60;1779066;79;21210;-68
2021/04/30 00:34:52;;;;;;;9.25;5.78;;;;;;;14.27;52.80;100219.10;1760578;79;21192;-66
2021/04/30 00:37:20;;;;;;;9.85;6.22;;;;;;;14.27;52.78;100218.25;1778263;79;21575;-68
2021/04/30 00:39:49;;;;;;;10.15;5.67;;;;;;;14.27;52.73;100220.89;1784218;79;21322;-69
2021/04/30 00:42:18;;;;;;;9.15;5.67;;;;;;;14.25;52.78;100218.39;1781580;79;21202;-67
2021/04/30 00:44:47;;;;;;;8.73;5.67;;;;;;;14.25;52.73;100225.52;1783270;79;21167;-70
2021/04/30 00:47:29;;;;;;;9.83;5.40;;;;;;;14.23;52.74;100230.95;1760062;79;21151;-65
2021/04/30 01:00:54;;;;;;;8.13;4.90;;;;;;;13.93;53.53;100213.11;1803314;77;22883;-71
2021/04/30 01:03:23;;;;;;;8.20;5.28;;;;;;;13.85;53.59;100218.81;1773990;78;21144;-71
2021/04/30 01:05:52;;;;;;;8.73;5.70;;;;;;;13.84;53.60;100215.84;1789886;79;21251;-71
2021/04/30 01:08:20;;;;;;;10.00;5.55;;;;;;;13.86;53.67;100219.98;1770895;78;21462;-72
2021/04/30 01:10:48;;;;;;;7.87;5.22;;;;;;;13.88;53.66;100210.58;1821307;77;21184;-69
2021/04/30 01:13:16;;;;;;;9.03;5.60;;;;;;;13.89;53.61;100215.72;1785799;77;21536;-67
2021/04/30 01:16:01;;;;;;;8.63;5.40;;;;;;;13.93;53.66;100212.29;1785847;79;22786;-68
2021/04/30 01:18:44;;;;;;;9.30;5.10;;;;;;;13.90;53.60;100208.14;1690689;83;21590;-70
2021/04/30 01:21:15;;;;;;;9.43;4.92;;;;;;;13.91;53.64;100205.00;1692672;84;21222;-70
2021/04/30 01:23:52;;;;;;;11.45;5.75;;;;;;;13.90;53.49;100200.21;1680470;82;21609;-67
2021/04/30 01:26:21;;;;;;;8.78;5.58;;;;;;;13.91;53.50;100199.21;1710190;82;21574;-71
2021/04/30 01:28:50;;;;;;;8.55;5.65;;;;;;;13.92;53.59;100198.73;1683362;83;21185;-71
2021/04/30 01:31:19;;;;;;;9.53;5.75;;;;;;;13.92;53.52;100198.23;1698561;82;21221;-69
2021/04/30 01:33:55;;;;;;;9.15;5.37;;;;;;;13.94;53.58;100196.77;1706005;82;21554;-69
2021/04/30 01:36:23;;;;;;;9.30;5.83;;;;;;;13.94;53.48;100189.66;1704279;82;21614;-69
2021/04/30 01:38:53;;;;;;;8.73;5.12;;;;;;;13.96;53.50;100192.66;1693411;83;21611;-67
2021/04/30 01:41:22;;;;;;;7.40;5.12;;;;;;;13.92;53.53;100183.69;1697755;82;21190;-68
2021/04/30 01:43:50;;;;;;;8.33;5.17;;;;;;;13.95;53.50;100189.16;1665955;84;21186;-70
2021/04/30 01:46:18;;;;;;;9.40;5.05;;;;;;;13.94;53.48;100185.69;1691774;82;21834;-67
2021/04/30 01:48:47;;;;;;;10.10;5.10;;;;;;;13.95;53.43;100186.52;1702408;82;21185;-69
2021/04/30 01:51:16;;;;;;;7.80;4.92;;;;;;;13.97;53.51;100181.08;1699121;82;21150;-68
2021/04/30 01:53:45;;;;;;;11.43;5.40;;;;;;;13.97;53.38;100179.75;1689503;83;21195;-68
2021/04/30 01:56:13;;;;;;;8.43;4.92;;;;;;;13.99;53.38;100187.07;1701577;82;21444;-68
2021/04/30 01:58:42;;;;;;;8.55;5.22;;;;;;;14.01;53.45;100183.28;1677825;82;21201;-66
2021/04/30 02:01:10;;;;;;;10.40;5.58;;;;;;;14.00;53.48;100178.95;1664961;84;21703;-66
2021/04/30 02:03:37;;;;;;;8.15;5.20;;;;;;;14.02;53.47;100170.41;1669596;82;21177;-65
2021/04/30 02:06:05;;;;;;;9.03;5.28;;;;;;;14.03;53.33;100172.05;1702278;82;21174;-67
2021/04/30 02:08:32;;;;;;;10.28;4.97;;;;;;;14.05;53.39;100171.91;1689697;82;21156;-69
2021/04/30 02:11:04;;;;;;;8.25;5.35;;;;;;;14.05;53.28;100164.78;1698597;82;21221;-66
2021/04/30 02:13:31;;;;;;;8.03;4.50;;;;;;;14.06;53.24;100161.17;1689019;83;21189;-66
2021/04/30 02:16:00;;;;;;;9.28;5.85;;;;;;;14.05;53.31;100157.35;1701451;82;21223;-65
2021/04/30 02:18:27;;;;;;;9.43;5.75;;;;;;;14.05;53.25;100160.00;1671085;85;21198;-66
2021/04/30 02:20:56;;;;;;;8.15;4.92;;;;;;;14.04;53.28;100159.67;1663426;83;21198;-65
2021/04/30 02:23:23;;;;;;;9.48;5.20;;;;;;;14.02;53.47;100158.50;1686456;83;21651;-67
2021/04/30 02:25:51;;;;;;;7.53;4.95;;;;;;;14.02;53.41;100157.17;1693544;83;21585;-67
2021/04/30 02:28:19;;;;;;;8.48;5.70;;;;;;;14.01;53.32;100157.33;1732082;81;21621;-67
2021/04/30 02:30:46;;;;;;;7.22;4.80;;;;;;;13.99;53.27;100156.66;1713262;81;21191;-66
2021/04/30 02:33:14;;;;;;;10.23;5.25;;;;;;;13.97;53.35;100151.98;1712857;81;21181;-67
2021/04/30 02:35:46;;;;;;;9.18;5.12;;;;;;;13.94;53.44;100156.59;1728443;81;21206;-72
2021/04/30 02:38:15;;;;;;;9.70;4.92;;;;;;;13.92;53.46;100157.74;1732250;81;21612;-69
2021/04/30 02:40:46;;;;;;;7.47;5.00;;;;;;;13.88;53.55;100158.50;1731326;81;21194;-66
2021/04/30 02:43:16;;;;;;;8.35;5.55;;;;;;;13.85;53.40;100153.54;1719549;81;21196;-68
2021/04/30 02:45:45;;;;;;;11.18;5.00;;;;;;;13.82;53.56;100162.23;1719901;81;21220;-66
2021/04/30 02:49:26;;;;;;;7.85;4.40;;;;;;;13.77;53.74;100156.09;1871758;75;22582;-70
2021/04/30 02:51:49;;;;;;;9.33;5.45;;;;;;;13.75;53.81;100157.56;1829751;77;21139;-66
2021/04/30 02:54:19;;;;;;;7.75;5.20;;;;;;;13.74;53.83;100159.03;1839920;77;21459;-71
2021/04/30 02:56:47;;;;;;;9.45;5.40;;;;;;;13.75;53.81;100165.97;1826312;77;20994;-72
2021/04/30 02:59:15;;;;;;;9.33;5.92;;;;;;;13.76;53.77;100167.64;1808201;76;21582;-67
2021/04/30 03:01:44;;;;;;;9.28;5.92;;;;;;;13.74;53.82;100165.14;1833462;77;21196;-72
2021/04/30 03:04:17;;;;;;;9.10;6.28;;;;;;;13.73;53.91;100166.14;1833978;76;21159;-68
2021/04/30 03:06:46;;;;;;;8.15;5.28;;;;;;;13.72;53.93;100168.94;1804584;77;21391;-70
2021/04/30 03:09:14;;;;;;;7.87;4.78;;;;;;;13.69;54.10;100172.70;1838086;77;21151;-67
2021/04/30 03:11:43;;;;;;;9.48;5.65;;;;;;;13.67;54.17;100175.16;1837153;77;20998;-70
2021/04/30 03:14:13;;;;;;;9.88;5.65;;;;;;;13.67;54.20;100175.16;1812793;77;21183;-68
2021/04/30 03:16:42;;;;;;;8.93;6.03;;;;;;;13.67;54.28;100173.84;1837328;77;21172;-71
2021/04/30 03:19:10;;;;;;;8.88;5.28;;;;;;;13.65;54.36;100163.88;1833770;77;21419;-70
2021/04/30 03:21:38;;;;;;;8.45;5.12;;;;;;;13.64;54.43;100169.66;1770490;80;21168;-72
2021/04/30 03:24:08;;;;;;;10.35;5.62;;;;;;;13.65;54.47;100167.38;1747203;80;21184;-67
2021/04/30 03:26:38;;;;;;;9.10;4.70;;;;;;;13.68;54.54;100175.48;1769304;79;21577;-66
2021/04/30 03:29:06;;;;;;;8.58;5.45;;;;;;;13.68;54.56;100172.34;1782269;80;21590;-62
2021/04/30 03:31:34;;;;;;;8.83;5.30;;;;;;;13.70;54.48;100174.84;1765254;80;22194;-66
2021/04/30 03:34:01;;;;;;;9.20;5.50;;;;;;;13.69;54.57;100174.52;1747059;80;21175;-64
2021/04/30 03:36:30;;;;;;;8.60;5.47;;;;;;;13.71;54.64;100175.19;1775086;80;21100;-64
2021/04/30 03:38:59;;;;;;;8.15;5.10;;;;;;;13.74;54.66;100176.22;1782136;78;21194;-69
2021/04/30 03:41:27;;;;;;;8.58;5.42;;;;;;;13.75;54.53;100169.94;1741086;80;21562;-67
2021/04/30 03:43:55;;;;;;;10.05;5.50;;;;;;;13.78;54.66;100176.25;1799174;79;21690;-71
2021/04/30 03:46:24;;;;;;;8.70;5.40;;;;;;;13.82;54.44;100178.96;1780371;79;21663;-66
2021/04/30 03:48:52;;;;;;;9.33;5.00;;;;;;;13.86;54.43;100174.20;1748719;80;21199;-63
2021/04/30 03:51:21;;;;;;;9.08;5.58;;;;;;;13.88;54.43;100177.52;1770276;79;21144;-63
2021/04/30 03:53:48;;;;;;;10.30;5.08;;;;;;;13.89;54.40;100177.38;1773962;80;21109;-68
2021/04/30 03:56:16;;;;;;;8.80;4.78;;;;;;;13.90;54.30;100173.76;1743180;80;21199;-68
2021/04/30 03:58:44;;;;;;;7.97;4.75;;;;;;;13.92;54.21;100169.14;1733307;80;21143;-65
2021/04/30 04:01:13;;;;;;;8.30;4.65;;;;;;;13.93;54.12;100180.05;1746599;80;21650;-66
2021/04/30 04:03:41;;;;;;;9.05;5.15;;;;;;;13.94;54.31;100172.47;1749776;80;22245;-64
2021/04/30 04:06:09;;;;;;;7.97;4.50;;;;;;;13.94;54.18;100177.75;1772196;80;21212;-64
2021/04/30 04:08:37;;;;;;;9.60;5.42;;;;;;;13.97;54.11;100175.78;1736547;80;21191;-60
2021/04/30 04:11:05;;;;;;;10.05;4.50;;;;;;;13.96;54.06;100176.28;1774258;80;21207;-71
2021/04/30 04:13:33;;;;;;;7.45;4.75;;;;;;;13.99;53.94;100180.46;1773077;80;21194;-64
2021/04/30 04:16:03;;;;;;;8.73;4.97;;;;;;;14.00;53.80;100174.98;1776107;80;21177;-69
2021/04/30 04:18:32;;;;;;;8.85;4.60;;;;;;;14.01;53.80;100174.52;1766981;78;21196;-70
2021/04/30 04:21:00;;;;;;;10.13;4.78;;;;;;;14.05;53.93;100171.91;1778876;80;21590;-67
2021/04/30 04:23:29;;;;;;;6.62;4.15;;;;;;;14.06;53.69;100168.28;1780036;78;21145;-69
2021/04/30 04:25:57;;;;;;;10.80;5.28;;;;;;;14.09;53.53;100169.31;1760697;80;21198;-67
2021/04/30 04:28:24;;;;;;;9.15;4.95;;;;;;;14.11;53.39;100166.02;1774593;80;21162;-70
2021/04/30 04:30:53;;;;;;;7.70;5.03;;;;;;;14.13;53.27;100167.52;1731782;80;21237;-69
2021/04/30 04:33:22;;;;;;;7.33;4.30;;;;;;;14.17;52.97;100165.42;1751889;81;21380;-72
2021/04/30 04:35:51;;;;;;;8.28;4.35;;;;;;;14.19;53.25;100164.77;1742784;80;21210;-70
2021/04/30 04:38:18;;;;;;;9.03;4.90;;;;;;;14.19;53.07;100156.84;1771300;79;21187;-69
2021/04/30 04:40:46;;;;;;;7.67;4.35;;;;;;;14.22;52.92;100155.68;1764251;79;21140;-69
2021/04/30 04:43:13;;;;;;;7.95;3.83;;;;;;;14.25;52.97;100158.03;1754194;80;21634;-68
2021/04/30 04:45:42;;;;;;;9.63;4.92;;;;;;;14.26;52.82;100146.47;1761780;80;21171;-67
2021/04/30 04:48:10;;;;;;;6.62;4.10;;;;;;;14.30;52.75;100149.96;1796217;78;21144;-67
2021/04/30 04:50:38;;;;;;;6.95;3.85;;;;;;;14.33;52.78;100151.48;1751187;81;21182;-69
2021/04/30 04:53:09;;;;;;;7.08;4.25;;;;;;;14.36;52.68;100141.92;1760713;80;21194;-65
2021/04/30 04:55:38;;;;;;;8.23;4.12;;;;;;;14.40;52.28;100144.59;1776850;79;21199;-63
2021/04/30 04:58:06;;;;;;;8.53;4.60;;;;;;;14.44;52.39;100139.34;1781241;79;21252;-60
2021/04/30 05:00:34;;;;;;;7.78;4.10;;;;;;;14.49;52.50;100132.23;1737445;81;21230;-66
2021/04/30 05:03:01;;;;;;;7.05;3.65;;;;;;;14.53;51.74;100134.11;1761484;81;21583;-70
2021/04/30 05:05:30;;;;;;;7.75;3.62;;;;;;;14.54;51.69;100140.58;1752877;81;21107;-61
2021/04/30 05:07:58;;;;;;;6.70;3.70;;;;;;;14.54;51.79;100141.91;1745825;81;21178;-75
2021/04/30 05:10:27;;;;;;;7.33;3.60;;;;;;;14.57;51.85;100143.39;1772373;79;21257;-68
2021/04/30 05:12:55;;;;;;;7.55;3.85;;;;;;;14.60;51.76;100141.30;1767862;79;21199;-70
2021/04/30 05:15:23;;;;;;;7.97;4.12;;;;;;;14.65;51.42;100144.30;1754898;81;21545;-68
2021/04/30 05:17:51;;;;;;;7.53;3.90;;;;;;;14.71;51.46;100145.52;1780971;79;21176;-69
2021/04/30 05:20:18;;;;;;;6.22;3.60;;;;;;;14.79;51.31;100143.41;1761300;81;21673;-71
2021/04/30 05:22:46;;;;;;;7.08;3.42;;;;;;;14.83;50.86;100136.31;1759952;80;22375;-72
2021/04/30 05:25:15;;;;;;;6.90;3.87;;;;;;;14.86;50.43;100143.95;1769213;80;21178;-67
2021/04/30 05:27:43;;;;;;;7.33;3.47;;;;;;;14.88;50.63;100136.33;1763744;79;21602;-66
2021/04/30 05:30:13;;;;;;;6.95;3.55;;;;;;;14.91;50.52;100134.22;1775549;79;21130;-67
2021/04/30 05:32:41;;;;;;;8.88;4.08;;;;;;;14.95;50.74;100128.94;1750397;80;21162;-69
2021/04/30 05:35:12;;;;;;;7.78;4.00;;;;;;;15.01;50.36;100123.48;1766281;80;21802;-70
2021/04/30 05:37:39;;;;;;;9.40;4.00;;;;;;;15.05;50.31;100126.99;1747173;79;21183;-65
2021/04/30 05:40:09;;;;;;;6.62;3.87;;;;;;;15.07;50.12;100131.31;1760820;79;21202;-69
2021/04/30 05:42:37;;;;;;;7.35;3.50;;;;;;;15.09;49.93;100134.12;1758633;80;21175;-68
2021/04/30 05:45:10;;;;;;;8.55;4.40;;;;;;;15.10;50.02;100125.70;1755808;81;21178;-69
2021/04/30 05:47:39;;;;;;;7.22;4.05;;;;;;;15.12;50.22;100126.38;1755871;81;22250;-64
2021/04/30 05:50:09;;;;;;;5.70;3.08;;;;;;;15.11;50.13;100124.20;1766734;79;21132;-67
2021/04/30 05:52:36;;;;;;;7.00;3.47;;;;;;;15.07;50.34;100117.56;1759746;80;21170;-66
2021/04/30 05:55:06;;;;;;;7.30;3.42;;;;;;;15.04;50.78;100116.55;1775052;79;21607;-72
2021/04/30 05:57:33;;;;;;;6.67;3.42;;;;;;;15.07;51.04;100114.09;1753992;81;21229;-71
2021/04/30 06:00:03;;;;;;;5.70;3.25;;;;;;;15.12;51.07;100121.07;1761777;79;21409;-70
2021/04/30 06:02:34;;;;;;;7.80;3.85;;;;;;;15.15;51.08;100120.77;1758244;79;21194;-73
2021/04/30 06:05:03;;;;;;;7.37;3.45;;;;;;;15.21;51.33;100120.95;1763877;80;21196;-72
2021/04/30 06:07:31;;;;;;;6.67;3.90;;;;;;;15.30;51.35;100120.48;1769661;79;21582;-66
2021/04/30 06:10:02;;;;;;;7.55;3.70;;;;;;;15.39;51.80;100117.36;1762150;79;21690;-65
2021/04/30 06:12:32;;;;;;;6.83;3.77;;;;;;;15.51;51.54;100124.02;1766378;80;21199;-69
2021/04/30 06:15:01;;;;;;;7.03;4.08;;;;;;;15.59;51.31;100116.09;1783284;79;21159;-67
2021/04/30 06:17:30;;;;;;;5.95;3.40;;;;;;;15.66;50.99;100112.29;1784937;79;21139;-65
2021/04/30 06:19:58;;;;;;;8.05;3.70;;;;;;;15.69;51.35;100113.30;1786931;79;21124;-67
2021/04/30 06:22:26;;;;;;;6.55;4.17;;;;;;;15.75;51.34;100117.11;1761751;80;21590;-68
2021/04/30 06:24:56;;;;;;;6.42;3.50;;;;;;;15.82;51.70;100117.32;1772790;80;21222;-70
2021/04/30 06:27:24;;;;;;;7.17;4.25;;;;;;;15.86;51.28;100116.02;1771033;80;21599;-60
2021/04/30 06:29:52;;;;;;;9.70;4.40;;;;;;;15.91;51.36;100119.83;1781858;80;21504;-70
2021/04/30 06:32:19;;;;;;;6.87;4.08;;;;;;;15.97;51.10;100113.05;1780233;79;21119;-62
2021/04/30 06:34:47;;;;;;;7.65;4.28;;;;;;;15.97;51.24;100114.38;1757292;81;21183;-62
2021/04/30 06:37:14;;;;;;;8.53;4.25;;;;;;;15.98;51.59;100110.20;1762510;80;21509;-68
2021/04/30 06:39:43;;;;;;;7.25;4.33;;;;;;;16.03;51.48;100115.53;1781482;79;21131;-64
2021/04/30 06:42:12;;;;;;;9.88;4.62;;;;;;;16.07;51.53;100104.91;1795977;79;21441;-69
2021/04/30 06:44:40;;;;;;;9.13;4.45;;;;;;;16.08;51.91;100106.08;1743050;81;21197;-61
2021/04/30 06:47:08;;;;;;;8.25;4.22;;;;;;;16.13;51.70;100109.56;1774043;79;21123;-62
2021/04/30 06:49:35;;;;;;;9.08;4.03;;;;;;;16.15;51.82;100108.89;1774075;79;21199;-61
2021/04/30 06:52:03;;;;;;;7.67;3.35;;;;;;;16.18;51.94;100110.41;1774814;80;21182;-63
2021/04/30 06:54:31;;;;;;;9.55;3.87;;;;;;;16.22;52.21;100106.41;1760029;80;21201;-67
2021/04/30 06:56:59;;;;;;;10.08;4.55;;;;;;;16.25;51.99;100111.39;1777561;80;21154;-59
2021/04/30 06:59:26;;;;;;;8.78;3.55;;;;;;;16.30;52.17;100101.09;1748138;80;21174;-66
2021/04/30 07:01:54;;;;;;;7.90;4.05;;;;;;;16.39;52.08;100105.89;1766092;80;22280;-61
2021/04/30 07:04:23;;;;;;;8.10;3.75;;;;;;;16.48;51.89;100103.58;1759469;80;21214;-66
2021/04/30 07:06:51;;;;;;;9.20;4.12;;;;;;;16.56;51.38;100102.23;1772518;80;21187;-71
2021/04/30 07:09:21;;;;;;;8.20;3.52;;;;;;;16.62;51.68;100104.71;1775265;80;21550;-67
2021/04/30 07:11:49;;;;;;;8.78;3.12;;;;;;;16.68;51.21;100106.19;1752359;80;21195;-65
2021/04/30 07:14:19;;;;;;;7.03;3.22;;;;;;;16.72;50.67;100107.50;1772447;80;21198;-66
2021/04/30 07:16:47;;;;;;;6.17;3.45;;;;;;;16.69;50.82;100097.71;1774612;80;21162;-69
2021/04/30 07:19:15;;;;;;;5.72;3.25;;;;;;;16.69;50.64;100095.05;1785187;80;21183;-63
2021/04/30 07:21:43;;;;;;;5.55;2.90;;;;;;;16.72;50.22;100097.38;1765903;80;21508;-63
2021/04/30 07:24:11;;;;;;;6.42;3.40;;;;;;;16.73;50.52;100089.75;1772398;80;21222;-64
2021/04/30 07:26:41;;;;;;;9.63;3.50;;;;;;;16.81;50.00;100087.08;1778071;80;21330;-71
2021/04/30 07:29:11;;;;;;;7.17;3.05;;;;;;;16.89;49.89;100084.42;1772046;78;21123;-64
2021/04/30 07:31:39;;;;;;;8.83;3.37;;;;;;;17.04;49.61;100095.66;1729363;81;21605;-67
2021/04/30 07:34:10;;;;;;;5.62;3.08;;;;;;;17.18;47.91;100092.77;1787403;78;21546;-63
2021/04/30 07:36:38;;;;;;;8.25;3.92;;;;;;;17.25;47.12;100086.59;1788986;79;22300;-70
2021/04/30 07:39:05;;;;;;;8.63;3.42;;;;;;;17.29;46.99;100093.72;1790088;79;21320;-67
2021/04/30 07:41:33;;;;;;;8.58;3.30;;;;;;;17.35;46.83;100079.73;1747904;81;21192;-75
2021/04/30 07:44:02;;;;;;;6.37;3.12;;;;;;;17.43;46.96;100078.36;1784815;78;21626;-64
2021/04/30 07:46:29;;;;;;;6.22;2.70;;;;;;;17.55;46.57;100068.63;1776786;78;21155;-70
2021/04/30 07:48:58;;;;;;;6.90;2.85;;;;;;;17.62;45.82;100075.74;1786824;78;21183;-71
2021/04/30 07:51:28;;;;;;;7.30;2.90;;;;;;;17.66;46.16;100074.06;1785057;78;22525;-67
2021/04/30 07:53:55;;;;;;;7.97;3.20;;;;;;;17.73;46.09;100071.02;1771755;79;21630;-69
2021/04/30 07:56:24;;;;;;;9.38;3.10;;;;;;;17.81;45.96;100062.47;1762841;80;21134;-66
2021/04/30 07:58:51;;;;;;;4.40;2.35;;;;;;;17.90;45.75;100073.91;1773714;80;21156;-74
2021/04/30 08:01:21;;;;;;;5.78;2.70;;;;;;;18.02;45.19;100064.98;1761762;80;21207;-72
2021/04/30 08:03:50;;;;;;;5.55;2.90;;;;;;;18.10;45.26;100052.12;1761919;80;21644;-63
2021/04/30 08:06:19;;;;;;;6.03;2.75;;;;;;;18.16;44.63;100052.23;1748993;80;21198;-66
2021/04/30 08:08:46;;;;;;;6.65;2.83;;;;;;;18.20;45.18;100058.02;1744597;80;21200;-67
2021/04/30 08:11:15;;;;;;;13.22;2.85;;;;;;;18.28;45.03;100056.61;1771362;80;21187;-65
2021/04/30 08:13:44;;;;;;;6.47;2.87;;;;;;;18.40;44.60;100060.99;1767158;80;21232;-70
2021/04/30 08:16:12;;;;;;;6.47;3.30;;;;;;;18.48;44.23;100056.10;1764715;80;22104;-66
2021/04/30 08:18:40;;;;;;;5.62;2.05;;;;;;;18.53;44.41;100045.72;1767684;80;21175;-65
2021/04/30 08:21:09;;;;;;;7.85;2.98;;;;;;;18.59;44.10;100040.16;1767274;79;21176;-71
2021/04/30 08:23:37;;;;;;;5.20;2.50;;;;;;;18.63;44.14;100042.27;1743793;80;21147;-67
2021/04/30 08:26:07;;;;;;;4.75;2.50;;;;;;;18.68;43.77;100036.41;1745796;79;21124;-66
2021/04/30 08:28:35;;;;;;;5.50;2.50;;;;;;;18.73;43.88;100035.34;1755464;80;21208;-71
2021/04/30 08:31:04;;;;;;;6.92;2.50;;;;;;;18.79;43.38;100037.77;1768026;80;21211;-66
2021/04/30 08:33:32;;;;;;;5.62;2.58;;;;;;;18.86;43.21;100036.03;1774156;79;21187;-64
2021/04/30 08:36:00;;;;;;;6.25;3.27;;;;;;;18.88;43.38;100035.37;1756541;80;21626;-62
2021/04/30 08:38:27;;;;;;;6.35;2.80;;;;;;;18.89;43.31;100031.67;1759504;80;21458;-63
2021/04/30 08:40:59;;;;;;;12.30;3.33;;;;;;;18.91;43.10;100028.30;1778003;78;21256;-65
2021/04/30 08:43:27;;;;;;;6.87;2.92;;;;;;;18.92;43.35;100035.30;1748681;80;21557;-63
2021/04/30 08:45:55;;;;;;;24.32;6.12;;;;;;;18.96;43.07;100030.42;1754361;81;21180;-70
2021/04/30 08:48:26;;;;;;;6.65;2.90;;;;;;;18.99;44.24;100025.53;1729468;81;21179;-72
2021/04/30 08:50:55;;;;;;;5.87;2.90;;;;;;;19.06;43.35;100021.62;1762469;80;21147;-63
2021/04/30 08:53:23;;;;;;;7.75;3.30;;;;;;;19.12;42.72;100016.36;1774368;79;21687;-62
2021/04/30 08:55:51;;;;;;;6.30;3.02;;;;;;;19.15;42.88;100015.66;1771886;80;21234;-63
2021/04/30 08:58:25;;;;;;;7.35;3.02;;;;;;;19.17;42.87;100013.14;1761685;80;21202;-61
2021/04/30 09:00:49;;;;;;;10.40;3.00;;;;;;;19.24;43.39;100018.55;1769788;80;21638;-65
2021/04/30 09:03:18;;;;;;;15.35;2.80;;;;;;;19.32;42.72;100019.77;1776141;80;21218;-65
2021/04/30 09:05:50;;;;;;;7.28;2.70;;;;;;;19.43;43.28;100009.94;1774989;80;21270;-63
2021/04/30 09:08:20;;;;;;;5.87;2.30;;;;;;;19.53;42.49;100012.79;1774349;80;21087;-62
2021/04/30 09:10:51;;;;;;;5.33;2.75;;;;;;;19.59;42.44;100006.70;1750419;80;21178;-62
2021/04/30 09:13:21;;;;;;;10.80;2.83;;;;;;;19.62;42.44;100006.32;1780113;80;21687;-64
2021/04/30 09:15:56;;;;;;;8.93;3.12;;;;;;;19.66;42.10;100012.92;1764268;80;21167;-67
2021/04/30 09:18:26;;;;;;;5.65;2.90;;;;;;;19.71;42.54;100002.48;1771553;80;21893;-64
2021/04/30 09:20:55;;;;;;;8.08;2.20;;;;;;;19.78;42.71;99996.72;1776172;80;21250;-65
2021/04/30 09:23:39;;;;;;;6.17;2.65;;;;;;;19.91;42.90;99991.20;1771721;80;21656;-68
2021/04/30 09:26:26;;;;;;;6.17;2.75;;;;;;;20.04;42.19;99990.77;1773421;80;21124;-64
2021/04/30 09:29:08;;;;;;;9.33;2.50;;;;;;;20.17;42.00;99982.53;1774588;78;21203;-61
2021/04/30 09:31:41;;;;;;;7.42;2.72;;;;;;;20.27;41.96;99998.22;1772233;79;21559;-67
2021/04/30 09:34:34;;;;;;;6.85;2.85;;;;;;;20.32;42.32;99987.77;1770019;80;21183;-67
2021/04/30 09:37:16;;;;;;;5.37;2.50;;;;;;;20.42;42.10;99973.53;1772977;80;21587;-67
2021/04/30 09:39:58;;;;;;;5.70;2.67;;;;;;;20.56;41.58;99972.59;1746317;81;21175;-64
2021/04/30 09:42:30;;;;;;;5.95;2.80;;;;;;;20.65;41.12;99967.93;1774991;80;21195;-70
2021/04/30 09:45:03;;;;;;;6.65;3.42;;;;;;;20.67;41.61;99969.89;1775678;80;21201;-64
2021/04/30 09:47:34;;;;;;;13.32;3.80;;;;;;;20.72;41.03;99984.81;1773443;80;21179;-63
2021/04/30 09:50:07;;;;;;;7.83;3.00;;;;;;;20.74;40.97;99982.77;1748289;80;21171;-58
2021/04/30 09:52:34;;;;;;;8.85;3.42;;;;;;;20.77;41.03;99982.89;1761202;80;21112;-63
2021/04/30 09:55:06;;;;;;;11.55;3.12;;;;;;;20.84;41.03;99978.38;1763568;80;21179;-70
2021/04/30 09:57:33;;;;;;;5.10;2.67;;;;;;;20.90;40.67;99984.28;1736073;80;21235;-66
2021/04/30 10:00:10;;;;;;;6.08;2.80;;;;;;;20.94;41.14;99969.47;1765425;80;21662;-64
2021/04/30 10:02:40;;;;;;;6.25;2.98;;;;;;;21.02;40.82;99971.67;1758249;80;21112;-69
2021/04/30 10:05:17;;;;;;;8.70;3.40;;;;;;;21.11;41.22;99971.78;1763229;80;21120;-62
2021/04/30 10:07:47;;;;;;;8.18;3.17;;;;;;;21.20;40.54;99961.72;1741192;80;21152;-63
2021/04/30 10:10:18;;;;;;;6.78;2.55;;;;;;;21.24;40.88;99961.64;1774980;80;22252;-71
2021/04/30 10:12:55;;;;;;;10.10;3.12;;;;;;;21.31;41.12;99959.27;1764925;80;21247;-68
2021/04/30 10:15:24;;;;;;;9.80;3.70;;;;;;;21.44;40.94;99951.78;1735510;80;21211;-63
2021/04/30 10:17:57;;;;;;;7.25;2.80;;;;;;;21.52;40.46;99952.14;1800931;79;21139;-66
2021/04/30 10:20:26;;;;;;;7.53;3.15;;;;;;;21.58;40.41;99953.16;1766174;80;21167;-65
2021/04/30 10:22:57;;;;;;;5.87;3.27;;;;;;;21.58;40.29;99945.94;1770167;80;22296;-62
2021/04/30 10:25:27;;;;;;;5.90;3.55;;;;;;;21.64;40.44;99943.79;1743486;80;21203;-69
2021/04/30 10:28:13;;;;;;;6.72;3.33;;;;;;;21.71;40.75;99939.24;1772926;78;21207;-66
2021/04/30 10:31:12;;;;;;;10.23;3.27;;;;;;;21.90;40.57;99932.74;1835075;77;22885;-59
2021/04/30 10:34:11;;;;;;;5.80;3.02;;;;;;;22.03;40.30;99926.55;1812876;78;21602;-62
2021/04/30 10:36:43;;;;;;;7.60;3.83;;;;;;;22.15;40.14;99921.37;1741876;80;21374;-65
2021/04/30 10:39:31;;;;;;;6.83;2.87;;;;;;;22.22;39.39;99929.67;1784670;78;21587;-60
2021/04/30 10:42:11;;;;;;;7.25;3.55;;;;;;;22.16;38.98;99924.37;1810134;78;21100;-60
2021/04/30 10:44:44;;;;;;;8.05;3.30;;;;;;;22.04;39.81;99921.48;1801358;78;21101;-71
2021/04/30 10:47:20;;;;;;;13.22;4.42;;;;;;;22.01;39.96;99920.06;1730740;80;21148;-61
2021/04/30 10:50:14;;;;;;;8.88;3.87;;;;;;;21.98;39.64;99925.83;1767628;78;21638;-62
2021/04/30 10:52:49;;;;;;;7.03;3.47;;;;;;;21.87;40.04;99914.41;1764751;78;21321;-61
2021/04/30 10:55:21;;;;;;;8.68;3.72;;;;;;;21.74;40.30;99911.25;1808839;78;21331;-62
2021/04/30 10:58:00;;;;;;;4.53;2.83;;;;;;;21.66;40.25;99912.27;1812932;78;21636;-60
2021/04/30 11:00:41;;;;;;;7.12;3.37;;;;;;;21.66;40.85;99905.58;1780149;78;21196;-63
2021/04/30 11:03:19;;;;;;;8.58;3.47;;;;;;;21.75;40.33;99906.70;1798603;78;21368;-60
2021/04/30 11:06:00;;;;;;;5.78;3.30;;;;;;;21.81;40.56;99907.22;1806764;78;21670;-59
2021/04/30 11:08:56;;;;;;;7.28;2.95;;;;;;;21.88;40.42;99897.31;1797956;78;21619;-65
2021/04/30 11:11:36;;;;;;;9.08;3.10;;;;;;;21.93;40.57;99907.41;1799129;78;21607;-67
2021/04/30 11:14:37;;;;;;;5.60;2.72;;;;;;;21.96;40.42;99902.45;1804847;78;22219;-66
2021/04/30 11:17:08;;;;;;;7.85;3.60;;;;;;;22.08;40.00;99888.70;1767429;78;21439;-63
2021/04/30 11:19:42;;;;;;;7.40;3.20;;;;;;;22.21;39.68;99888.38;1733530;81;21205;-59
2021/04/30 11:22:13;;;;;;;7.60;3.17;;;;;;;22.33;39.55;99894.75;1817314;78;21194;-56
2021/04/30 11:24:42;;;;;;;5.12;2.72;;;;;;;22.40;39.49;99879.98;1803637;78;21169;-61
2021/04/30 11:27:25;;;;;;;10.18;3.65;;;;;;;22.49;40.13;99882.71;1735848;79;21651;-58
2021/04/30 11:29:53;;;;;;;7.42;3.60;;;;;;;22.58;39.69;99874.74;1704965;81;21187;-57
2021/04/30 11:32:24;;;;;;;5.83;3.35;;;;;;;22.61;40.04;99874.81;1662332;83;21167;-60
2021/04/30 11:34:59;;;;;;;10.05;2.95;;;;;;;22.70;40.46;99889.64;1723084;83;21167;-57
2021/04/30 11:37:28;;;;;;;6.97;3.20;;;;;;;22.86;39.14;99875.41;1721624;81;21492;-59
2021/04/30 11:39:59;;;;;;;5.85;2.85;;;;;;;22.92;39.03;99876.70;1699434;83;21655;-61
2021/04/30 11:42:28;;;;;;;6.37;3.40;;;;;;;22.97;39.12;99876.06;1673899;84;21987;-58
2021/04/30 11:44:55;;;;;;;5.85;3.27;;;;;;;23.07;39.32;99871.07;1715052;81;21152;-59
2021/04/30 11:47:37;;;;;;;5.85;2.90;;;;;;;23.24;38.78;99865.17;1721090;81;21273;-58
2021/04/30 11:50:10;;;;;;;5.62;3.25;;;;;;;23.39;38.22;99868.34;1720101;81;21257;-55
2021/04/30 11:52:42;;;;;;;5.78;3.25;;;;;;;23.55;38.13;99856.21;1721949;82;21192;-63